createdAt,value
2018-01-07T00:02:09.062Z,56.50
2018-01-07T00:04:38.201Z,64.77
2018-01-07T00:07:07.246Z,60.00
2018-01-07T00:09:36.308Z,62.77
2018-01-07T00:12:04.762Z,56.10
2018-01-07T00:14:33.510Z,57.37
2018-01-07T00:17:02.644Z,60.37
2018-01-07T00:19:31.118Z,59.73
2018-01-07T00:22:00.158Z,62.17
2018-01-07T00:24:29.308Z,60.70
2018-01-07T00:26:58.326Z,57.50
2018-01-07T00:29:26.799Z,57.63
2018-01-07T00:31:55.718Z,63.00
2018-01-07T00:34:24.222Z,65.03
2018-01-07T00:36:53.081Z,56.53
2018-01-07T00:39:21.438Z,59.70
2018-01-07T00:41:50.488Z,64.43
2018-01-07T00:44:19.308Z,62.60
2018-01-07T00:46:47.843Z,58.00
2018-01-07T00:49:16.584Z,70.30
2018-01-07T00:51:46.621Z,68.97
2018-01-07T00:54:15.170Z,63.73
2018-01-07T00:56:44.268Z,70.67
2018-01-07T00:59:12.666Z,106.97
2018-01-07T01:01:41.636Z,80.03
2018-01-07T01:04:10.365Z,56.33
2018-01-07T01:06:38.921Z,62.80
2018-01-07T01:09:07.326Z,81.33
2018-01-07T01:11:36.513Z,72.80
2018-01-07T01:14:05.399Z,70.37
2018-01-07T01:16:33.889Z,73.33
2018-01-07T01:19:02.691Z,72.57
2018-01-07T01:21:31.099Z,61.50
2018-01-07T01:24:00.344Z,65.90
2018-01-07T01:26:29.300Z,61.50
2018-01-07T01:28:57.796Z,62.77
2018-01-07T01:31:26.671Z,60.30
2018-01-07T01:33:55.868Z,58.40
2018-01-07T01:36:24.788Z,58.57
2018-01-07T01:38:53.240Z,50.53
2018-01-07T01:41:22.180Z,49.80
2018-01-07T01:43:50.488Z,49.00
2018-01-07T01:46:19.580Z,50.53
2018-01-07T01:48:47.892Z,49.37
2018-01-07T01:51:17.015Z,49.60
2018-01-07T01:53:46.215Z,48.20
2018-01-07T01:56:15.156Z,48.63
2018-01-07T01:58:44.257Z,46.57
2018-01-07T02:01:13.372Z,48.90
2018-01-07T02:03:42.462Z,45.60
2018-01-07T02:06:11.476Z,42.43
2018-01-07T02:08:39.928Z,52.17
2018-01-07T02:11:08.886Z,52.27
2018-01-07T02:13:38.111Z,50.37
2018-01-07T02:16:07.500Z,45.67
2018-01-07T02:18:35.824Z,47.10
2018-01-07T02:21:04.997Z,45.27
2018-01-07T02:23:34.955Z,40.77
2018-01-07T02:26:03.591Z,43.90
2018-01-07T02:28:32.527Z,46.97
2018-01-07T02:31:00.897Z,49.63
2018-01-07T02:33:30.734Z,44.27
2018-01-07T02:36:00.038Z,49.10
2018-01-07T02:38:29.085Z,53.07
2018-01-07T02:40:58.011Z,51.37
2018-01-07T02:43:27.321Z,49.33
2018-01-07T02:45:56.065Z,59.17
2018-01-07T02:48:24.472Z,55.97
2018-01-07T02:50:52.917Z,62.30
2018-01-07T02:53:21.891Z,55.87
2018-01-07T02:55:50.210Z,51.47
2018-01-07T02:58:20.212Z,50.97
2018-01-07T03:00:48.613Z,45.70
2018-01-07T03:03:16.993Z,51.70
2018-01-07T03:05:45.715Z,100.33
2018-01-07T03:08:14.887Z,62.53
2018-01-07T03:10:43.201Z,65.57
2018-01-07T03:13:11.520Z,72.03
2018-01-07T03:15:40.913Z,81.57
2018-01-07T03:18:10.360Z,74.20
2018-01-07T03:20:38.785Z,70.37
2018-01-07T03:23:07.240Z,71.47
2018-01-07T03:25:36.252Z,66.93
2018-01-07T03:28:05.912Z,70.70
2018-01-07T03:30:35.043Z,82.60
2018-01-07T03:33:03.356Z,62.03
2018-01-07T03:35:32.540Z,56.27
2018-01-07T03:38:00.986Z,66.97
2018-01-07T03:40:30.024Z,46.90
2018-01-07T03:42:58.907Z,46.40
2018-01-07T03:45:28.802Z,54.97
2018-01-07T03:47:57.799Z,47.83
2018-01-07T03:50:26.115Z,59.07
2018-01-07T03:52:54.568Z,54.17
2018-01-07T03:55:23.552Z,53.07
2018-01-07T03:57:51.856Z,49.70
2018-01-07T04:00:20.916Z,44.97
2018-01-07T04:02:49.227Z,40.37
2018-01-07T04:05:17.587Z,38.87
2018-01-07T04:07:46.695Z,44.50
2018-01-07T04:10:15.503Z,39.63
2018-01-07T04:12:44.587Z,37.40
2018-01-07T04:15:13.688Z,37.20
2018-01-07T04:17:42.912Z,50.67
2018-01-07T04:20:12.096Z,41.83
2018-01-07T04:22:40.445Z,46.00
2018-01-07T04:25:08.759Z,39.43
2018-01-07T04:27:37.815Z,45.10
2018-01-07T04:30:06.664Z,45.20
2018-01-07T04:32:35.142Z,40.17
2018-01-07T04:35:04.160Z,43.50
2018-01-07T04:37:32.614Z,54.27
2018-01-07T04:40:00.956Z,42.23
2018-01-07T04:42:29.772Z,45.20
2018-01-07T04:44:58.181Z,46.00
2018-01-07T04:47:27.135Z,41.80
2018-01-07T04:49:55.457Z,44.07
2018-01-07T04:52:24.577Z,47.37
2018-01-07T04:54:53.068Z,58.03
2018-01-07T04:57:21.891Z,44.87
2018-01-07T04:59:50.359Z,60.77
2018-01-07T05:02:19.320Z,48.40
2018-01-07T05:04:48.347Z,51.90
2018-01-07T05:07:16.820Z,46.23
2018-01-07T05:09:45.723Z,56.27
2018-01-07T05:12:14.028Z,41.40
2018-01-07T05:14:42.436Z,64.70
2018-01-07T05:17:11.423Z,59.23
2018-01-07T05:19:39.823Z,51.07
2018-01-07T05:22:08.823Z,64.17
2018-01-07T05:24:37.940Z,88.57
2018-01-07T05:27:06.987Z,60.80
2018-01-07T05:29:35.424Z,55.13
2018-01-07T05:32:04.296Z,54.70
2018-01-07T05:34:33.472Z,71.67
2018-01-07T05:37:01.828Z,68.17
2018-01-07T05:39:30.381Z,65.47
2018-01-07T05:41:59.073Z,63.50
2018-01-07T05:44:27.495Z,53.60
2018-01-07T05:46:56.416Z,46.63
2018-01-07T05:49:24.755Z,54.20
2018-01-07T05:51:53.187Z,53.67
2018-01-07T05:54:22.280Z,58.57
2018-01-07T05:56:51.206Z,52.27
2018-01-07T05:59:20.387Z,54.97
2018-01-07T06:01:49.359Z,53.20
2018-01-07T06:04:17.811Z,45.47
2018-01-07T06:06:47.346Z,55.00
2018-01-07T06:09:15.847Z,81.00
2018-01-07T06:11:44.741Z,65.70
2018-01-07T06:14:13.116Z,76.87
2018-01-07T06:16:41.426Z,82.87
2018-01-07T06:19:09.743Z,61.17
2018-01-07T06:21:38.103Z,89.00
2018-01-07T06:24:07.123Z,76.03
2018-01-07T06:26:35.461Z,72.23
2018-01-07T06:29:04.013Z,61.70
2018-01-07T06:31:32.764Z,82.70
2018-01-07T06:34:02.037Z,78.00
2018-01-07T06:36:30.504Z,77.13
2018-01-07T06:38:58.820Z,83.27
2018-01-07T06:41:27.563Z,72.20
2018-01-07T06:43:56.682Z,67.73
2018-01-07T06:46:25.000Z,92.20
2018-01-07T06:48:53.888Z,63.27
2018-01-07T06:51:22.290Z,69.57
2018-01-07T06:53:50.608Z,66.27
2018-01-07T06:56:19.632Z,81.10
2018-01-07T06:58:47.996Z,80.00
2018-01-07T07:01:16.531Z,69.57
2018-01-07T07:03:44.900Z,72.80
2018-01-07T07:06:13.628Z,63.70
2018-01-07T07:08:42.047Z,39.97
2018-01-07T07:11:10.932Z,43.63
2018-01-07T07:13:39.343Z,39.53
2018-01-07T07:16:07.663Z,49.73
2018-01-07T07:18:36.364Z,54.87
2018-01-07T07:23:45.492Z,43.90
2018-01-07T07:26:13.863Z,40.30
2018-01-07T07:28:42.850Z,40.87
2018-01-07T07:31:11.949Z,42.67
2018-01-07T07:33:41.016Z,38.77
2018-01-07T07:36:09.336Z,34.97
2018-01-07T07:38:38.216Z,38.73
2018-01-07T07:41:07.061Z,39.57
2018-01-07T07:43:35.384Z,32.90
2018-01-07T07:46:04.040Z,33.10
2018-01-07T07:48:32.347Z,31.00
2018-01-07T07:51:00.844Z,31.93
2018-01-07T07:53:29.704Z,31.73
2018-01-07T07:55:58.911Z,31.57
2018-01-07T07:58:28.019Z,31.67
2018-01-07T08:00:56.989Z,31.10
2018-01-07T08:03:25.300Z,27.47
2018-01-07T08:05:54.372Z,30.60
2018-01-07T08:08:24.431Z,29.37
2018-01-07T08:10:53.520Z,30.40
2018-01-07T08:13:22.469Z,32.57
2018-01-07T08:15:50.872Z,32.50
2018-01-07T08:18:19.655Z,30.53
2018-01-07T08:20:48.248Z,35.90
2018-01-07T08:23:17.215Z,31.73
2018-01-07T08:25:46.305Z,41.07
2018-01-07T08:28:14.620Z,37.77
2018-01-07T08:30:43.788Z,35.60
2018-01-07T08:33:12.103Z,36.60
2018-01-07T08:35:41.012Z,36.40
2018-01-07T08:38:10.308Z,36.80
2018-01-07T08:40:39.283Z,36.90
2018-01-07T08:43:08.130Z,34.17
2018-01-07T08:45:36.506Z,34.13
2018-01-07T08:48:04.854Z,34.13
2018-01-07T08:50:33.181Z,34.70
2018-01-07T08:53:01.552Z,37.80
2018-01-07T08:55:30.496Z,31.27
2018-01-07T08:57:58.813Z,34.80
2018-01-07T09:00:28.408Z,34.40
2018-01-07T09:02:56.809Z,40.10
2018-01-07T09:05:25.917Z,37.67
2018-01-07T09:07:55.173Z,35.83
2018-01-07T09:10:24.214Z,39.37
2018-01-07T09:12:53.213Z,43.60
2018-01-07T09:15:22.403Z,38.10
2018-01-07T09:17:51.337Z,38.97
2018-01-07T09:20:19.654Z,40.73
2018-01-07T09:22:48.036Z,41.00
2018-01-07T09:25:16.591Z,40.00
2018-01-07T09:27:45.252Z,40.60
2018-01-07T09:30:14.052Z,39.80
2018-01-07T09:32:42.556Z,36.27
2018-01-07T09:35:11.072Z,32.70
2018-01-07T09:37:44.973Z,34.43
2018-01-07T09:40:14.184Z,33.37
2018-01-07T09:42:43.181Z,32.17
2018-01-07T09:45:12.189Z,32.47
2018-01-07T09:47:41.344Z,36.20
2018-01-07T09:50:10.597Z,37.93
2018-01-07T09:52:39.685Z,34.73
2018-01-07T09:55:08.264Z,32.80
2018-01-07T09:57:38.372Z,36.60
2018-01-07T10:00:07.492Z,35.33
2018-01-07T10:02:36.052Z,35.20
2018-01-07T10:05:05.036Z,32.60
2018-01-07T10:07:34.241Z,35.83
2018-01-07T10:10:02.574Z,32.20
2018-01-07T10:12:31.297Z,32.23
2018-01-07T10:14:59.812Z,28.40
2018-01-07T10:17:28.128Z,31.53
2018-01-07T10:19:57.106Z,26.97
2018-01-07T10:22:26.392Z,29.60
2018-01-07T10:24:54.781Z,34.07
2018-01-07T10:27:26.172Z,29.37
2018-01-07T10:29:55.097Z,33.87
2018-01-07T10:32:23.446Z,27.40
2018-01-07T10:34:53.056Z,31.00
2018-01-07T10:37:24.068Z,27.33
2018-01-07T10:39:52.632Z,28.27
2018-01-07T10:42:20.940Z,31.43
2018-01-07T10:44:49.295Z,26.33
2018-01-07T10:47:18.196Z,27.97
2018-01-07T10:49:47.055Z,24.43
2018-01-07T10:52:16.088Z,24.43
2018-01-07T10:54:44.591Z,22.07
2018-01-07T10:57:13.092Z,23.73
2018-01-07T10:59:41.820Z,27.23
2018-01-07T11:02:16.008Z,23.67
2018-01-07T11:04:44.691Z,24.60
2018-01-07T11:07:13.188Z,24.10
2018-01-07T11:09:41.557Z,19.27
2018-01-07T11:12:10.728Z,19.87
2018-01-07T11:14:39.053Z,12.70
2018-01-07T11:17:07.443Z,17.57
2018-01-07T11:19:35.916Z,16.63
2018-01-07T11:22:04.525Z,17.37
2018-01-07T11:24:33.420Z,15.67
2018-01-07T11:27:02.674Z,14.10
2018-01-07T11:29:31.087Z,16.03
2018-01-07T11:32:00.126Z,16.27
2018-01-07T11:34:28.729Z,12.10
2018-01-07T11:36:57.031Z,15.60
2018-01-07T11:39:25.780Z,14.80
2018-01-07T11:41:54.851Z,13.43
2018-01-07T11:44:24.300Z,14.57
2018-01-07T11:46:52.672Z,12.90
2018-01-07T11:49:21.363Z,11.90
2018-01-07T11:51:49.848Z,12.53
2018-01-07T11:54:18.683Z,13.43
2018-01-07T11:56:47.213Z,11.10
2018-01-07T11:59:16.640Z,13.60
2018-01-07T12:01:46.814Z,13.90
2018-01-07T12:04:15.212Z,11.97
2018-01-07T12:06:44.100Z,12.33
2018-01-07T12:09:12.469Z,12.33
2018-01-07T12:11:41.309Z,13.27
2018-01-07T12:14:09.764Z,12.17
2018-01-07T12:16:38.233Z,12.90
2018-01-07T12:19:07.184Z,9.83
2018-01-07T12:21:36.300Z,11.20
2018-01-07T12:24:05.306Z,13.47
2018-01-07T12:26:33.615Z,8.83
2018-01-07T12:29:01.941Z,12.50
2018-01-07T12:31:31.068Z,9.97
2018-01-07T12:33:59.471Z,13.60
2018-01-07T12:36:29.324Z,10.00
2018-01-07T12:38:57.700Z,11.03
2018-01-07T12:41:26.825Z,11.30
2018-01-07T12:43:55.627Z,12.43
2018-01-07T12:46:23.999Z,14.43
2018-01-07T12:48:52.316Z,13.57
2018-01-07T12:51:20.636Z,10.80
2018-01-07T12:53:49.756Z,11.73
2018-01-07T12:56:18.678Z,10.13
2018-01-07T12:58:47.038Z,10.87
2018-01-07T13:01:15.497Z,11.47
2018-01-07T13:03:44.224Z,11.70
2018-01-07T13:06:12.564Z,12.60
2018-01-07T13:08:40.938Z,11.77
2018-01-07T13:11:09.931Z,10.90
2018-01-07T13:13:38.240Z,10.03
2018-01-07T13:16:06.676Z,11.00
2018-01-07T13:18:35.053Z,11.60
2018-01-07T13:21:03.950Z,12.40
2018-01-07T13:23:33.083Z,11.03
2018-01-07T13:26:01.393Z,11.67
2018-01-07T13:28:30.346Z,11.30
2018-01-07T13:30:59.500Z,11.03
2018-01-07T13:33:28.501Z,11.33
2018-01-07T13:35:57.830Z,10.90
2018-01-07T13:38:26.635Z,10.20
2018-01-07T13:40:54.939Z,11.30
2018-01-07T13:43:23.818Z,10.70
2018-01-07T13:45:52.397Z,9.83
2018-01-07T13:48:21.180Z,11.20
2018-01-07T13:50:49.896Z,10.80
2018-01-07T13:53:18.225Z,10.37
2018-01-07T13:55:46.528Z,10.13
2018-01-07T13:58:16.460Z,10.03
2018-01-07T14:00:45.301Z,10.30
2018-01-07T14:03:13.654Z,10.30
2018-01-07T14:05:42.712Z,8.87
2018-01-07T14:08:11.029Z,11.00
2018-01-07T14:10:39.919Z,11.13
2018-01-07T14:13:09.349Z,10.80
2018-01-07T14:15:38.445Z,12.33
2018-01-07T14:18:07.695Z,10.80
2018-01-07T14:20:36.545Z,11.10
2018-01-07T14:23:05.728Z,10.47
2018-01-07T14:25:34.790Z,10.30
2018-01-07T14:28:03.934Z,11.53
2018-01-07T14:30:33.034Z,10.70
2018-01-07T14:33:01.908Z,9.53
2018-01-07T14:35:30.387Z,10.70
2018-01-07T14:37:58.711Z,9.17
2018-01-07T14:40:27.569Z,10.23
2018-01-07T14:42:56.698Z,10.97
2018-01-07T14:45:25.089Z,10.53
2018-01-07T14:47:53.446Z,10.30
2018-01-07T14:50:22.391Z,10.87
2018-01-07T14:52:51.419Z,11.60
2018-01-07T14:55:20.555Z,10.30
2018-01-07T14:57:49.650Z,12.20
2018-01-07T15:00:18.636Z,11.00
2018-01-07T15:02:46.993Z,11.40
2018-01-07T15:05:15.627Z,9.57
2018-01-07T15:07:44.365Z,10.80
2018-01-07T15:10:13.404Z,10.50
2018-01-07T15:12:41.877Z,10.57
2018-01-07T15:15:10.639Z,12.40
2018-01-07T15:17:39.116Z,11.07
2018-01-07T15:20:07.540Z,12.13
2018-01-07T15:22:36.506Z,10.67
2018-01-07T15:25:05.600Z,12.00
2018-01-07T15:27:34.878Z,12.30
2018-01-07T15:30:03.697Z,11.03
2018-01-07T15:32:32.004Z,12.60
2018-01-07T15:35:01.310Z,10.40
2018-01-07T15:37:29.911Z,11.53
2018-01-07T15:39:59.003Z,11.27
2018-01-07T15:42:27.642Z,10.37
2018-01-07T15:44:56.086Z,11.67
2018-01-07T15:47:25.103Z,13.13
2018-01-07T15:49:53.542Z,12.03
2018-01-07T15:52:22.316Z,11.90
2018-01-07T15:54:50.680Z,12.07
2018-01-07T15:57:19.787Z,11.93
2018-01-07T15:59:48.149Z,11.40
2018-01-07T16:02:16.464Z,8.50
2018-01-07T16:04:45.473Z,10.43
2018-01-07T16:07:14.489Z,11.07
2018-01-07T16:09:42.858Z,11.37
2018-01-07T16:12:12.058Z,11.07
2018-01-07T16:14:40.372Z,11.40
2018-01-07T16:17:08.906Z,11.27
2018-01-07T16:19:38.371Z,10.43
2018-01-07T16:22:07.448Z,10.07
2018-01-07T16:24:36.077Z,9.70
2018-01-07T16:27:04.870Z,11.23
2018-01-07T16:29:33.878Z,10.20
2018-01-07T16:32:12.112Z,9.90
2018-01-07T16:34:42.263Z,10.83
2018-01-07T16:37:10.723Z,11.27
2018-01-07T16:39:40.097Z,10.07
2018-01-07T16:42:10.184Z,10.93
2018-01-07T16:44:38.702Z,9.97
2018-01-07T16:47:07.594Z,13.00
2018-01-07T16:49:36.071Z,10.37
2018-01-07T16:52:04.968Z,10.77
2018-01-07T16:54:34.598Z,10.17
2018-01-07T16:57:03.391Z,10.13
2018-01-07T16:59:33.705Z,10.23
2018-01-07T17:02:03.000Z,10.33
2018-01-07T17:04:31.499Z,9.83
2018-01-07T17:07:00.969Z,11.60
2018-01-07T17:09:29.668Z,8.60
2018-01-07T17:11:59.181Z,8.97
2018-01-07T17:14:27.871Z,10.10
2018-01-07T17:16:57.479Z,10.47
2018-01-07T17:19:26.188Z,8.70
2018-01-07T17:21:54.694Z,8.73
2018-01-07T17:24:23.098Z,8.13
2018-01-07T17:26:52.104Z,9.23
2018-01-07T17:29:20.466Z,10.20
2018-01-07T17:31:49.622Z,9.27
2018-01-07T17:34:18.533Z,9.30
2018-01-07T17:36:46.898Z,9.83
2018-01-07T17:39:15.355Z,11.33
2018-01-07T17:41:44.212Z,10.97
2018-01-07T17:44:13.309Z,10.07
2018-01-07T17:46:42.603Z,9.63
2018-01-07T17:49:11.639Z,10.00
2018-01-07T17:51:39.990Z,11.03
2018-01-07T17:56:49.500Z,12.90
2018-01-07T17:59:18.521Z,12.97
2018-01-07T18:01:46.884Z,9.00
2018-01-07T18:04:15.295Z,11.27
2018-01-07T18:06:44.227Z,12.67
2018-01-07T18:09:13.511Z,12.60
2018-01-07T18:11:42.547Z,8.73
2018-01-07T18:14:11.515Z,12.17
2018-01-07T18:16:40.639Z,11.03
2018-01-07T18:19:09.826Z,9.83
2018-01-07T18:21:38.951Z,13.13
2018-01-07T18:24:07.920Z,12.63
2018-01-07T18:26:36.998Z,11.90
2018-01-07T18:29:05.350Z,12.70
2018-01-07T18:31:34.326Z,11.53
2018-01-07T18:34:04.403Z,11.17
2018-01-07T18:36:32.955Z,11.67
2018-01-07T18:39:01.608Z,12.80
2018-01-07T18:41:30.871Z,12.30
2018-01-07T18:43:59.958Z,15.23
2018-01-07T18:46:28.931Z,12.53
2018-01-07T18:48:58.172Z,11.40
2018-01-07T18:51:27.090Z,13.83
2018-01-07T18:53:56.226Z,12.43
2018-01-07T18:56:25.322Z,13.27
2018-01-07T18:58:54.010Z,14.57
2018-01-07T19:01:22.662Z,13.20
2018-01-07T19:03:52.521Z,13.27
2018-01-07T19:06:20.914Z,11.70
2018-01-07T19:08:50.098Z,15.13
2018-01-07T19:11:19.212Z,14.03
2018-01-07T19:13:47.950Z,16.10
2018-01-07T19:16:17.296Z,16.47
2018-01-07T19:18:46.072Z,16.93
2018-01-07T19:21:14.434Z,16.37
2018-01-07T19:23:43.742Z,17.13
2018-01-07T19:26:12.185Z,16.83
2018-01-07T19:28:41.148Z,14.10
2018-01-07T19:31:10.172Z,15.57
2018-01-07T19:33:38.632Z,14.87
2018-01-07T19:36:07.706Z,14.07
2018-01-07T19:38:36.462Z,14.60
2018-01-07T19:41:05.704Z,16.50
2018-01-07T19:43:34.844Z,14.47
2018-01-07T19:46:03.583Z,16.10
2018-01-07T19:48:31.947Z,14.90
2018-01-07T19:51:00.396Z,14.70
2018-01-07T19:53:28.967Z,14.57
2018-01-07T19:55:57.432Z,14.30
2018-01-07T19:58:26.184Z,15.13
2018-01-07T20:00:54.628Z,16.83
2018-01-07T20:03:23.503Z,12.57
2018-01-07T20:05:52.669Z,14.37
2018-01-07T20:08:21.754Z,15.77
2018-01-07T20:10:50.884Z,14.40
2018-01-07T20:13:19.319Z,15.47
2018-01-07T20:15:47.679Z,15.20
2018-01-07T20:18:18.063Z,14.13
2018-01-07T20:20:47.237Z,15.27
2018-01-07T20:23:15.642Z,12.87
2018-01-07T20:25:44.539Z,14.53
2018-01-07T20:28:13.483Z,13.10
2018-01-07T20:30:42.770Z,13.77
2018-01-07T20:33:11.223Z,13.70
2018-01-07T20:35:40.158Z,12.57
2018-01-07T20:38:09.189Z,15.77
2018-01-07T20:40:41.715Z,12.30
2018-01-07T20:43:10.590Z,11.43
2018-01-07T20:45:39.051Z,12.30
2018-01-07T20:48:08.540Z,13.80
2018-01-07T20:50:37.075Z,11.70
2018-01-07T20:53:05.482Z,11.57
2018-01-07T20:55:34.498Z,13.30
2018-01-07T20:58:02.856Z,12.20
2018-01-07T21:00:31.282Z,14.03
2018-01-07T21:02:59.740Z,14.03
2018-01-07T21:05:28.487Z,17.20
2018-01-07T21:07:56.936Z,14.70
2018-01-07T21:10:26.633Z,13.73
2018-01-07T21:12:55.724Z,12.80
2018-01-07T21:15:24.259Z,11.93
2018-01-07T21:17:53.304Z,15.27
2018-01-07T21:20:21.673Z,12.47
2018-01-07T21:22:50.169Z,15.33
2018-01-07T21:25:19.567Z,13.53
2018-01-07T21:27:47.939Z,15.40
2018-01-07T21:30:16.847Z,13.10
2018-01-07T21:32:45.412Z,13.63
2018-01-07T21:35:14.352Z,12.00
2018-01-07T21:37:43.458Z,10.43
2018-01-07T21:40:12.711Z,14.30
2018-01-07T21:42:42.438Z,14.37
2018-01-07T21:45:11.551Z,11.93
2018-01-07T21:47:40.270Z,15.27
2018-01-07T21:50:21.347Z,14.00
2018-01-07T21:52:50.906Z,14.47
2018-01-07T21:55:19.406Z,13.87
2018-01-07T21:57:48.050Z,15.07
2018-01-07T22:00:45.894Z,13.67
2018-01-07T22:03:31.947Z,14.17
2018-01-07T22:06:13.106Z,14.80
2018-01-07T22:08:41.999Z,14.63
2018-01-07T22:11:16.434Z,16.13
2018-01-07T22:13:45.437Z,11.73
2018-01-07T22:16:13.823Z,16.10
2018-01-07T22:18:42.707Z,15.10
2018-01-07T22:21:12.036Z,13.93
2018-01-07T22:23:40.887Z,15.23
2018-01-07T22:26:09.894Z,15.53
2018-01-07T22:28:38.984Z,15.40
2018-01-07T22:31:08.175Z,16.50
2018-01-07T22:33:38.223Z,17.00
2018-01-07T22:36:06.869Z,15.60
2018-01-07T22:38:35.416Z,16.13
2018-01-07T22:41:04.568Z,16.73
2018-01-07T22:43:32.931Z,18.80
2018-01-07T22:46:01.410Z,17.43
2018-01-07T22:48:30.239Z,16.87
2018-01-07T22:50:59.287Z,12.87
2018-01-07T22:53:27.858Z,15.53
2018-01-07T22:55:58.131Z,13.53
2018-01-07T22:58:27.572Z,16.27
2018-01-07T23:00:56.854Z,16.67
2018-01-07T23:03:27.898Z,16.80
2018-01-07T23:05:57.208Z,14.53
2018-01-07T23:08:25.723Z,14.07
2018-01-07T23:10:54.483Z,16.00
2018-01-07T23:13:24.539Z,14.30
2018-01-07T23:15:52.951Z,17.80
2018-01-07T23:18:21.754Z,15.87
2018-01-07T23:20:50.846Z,14.20
2018-01-07T23:23:19.241Z,16.37
2018-01-07T23:25:48.273Z,15.53
2018-01-07T23:28:17.032Z,13.50
2018-01-07T23:30:45.400Z,15.97
2018-01-07T23:33:14.041Z,16.43
2018-01-07T23:35:43.142Z,18.23
2018-01-07T23:38:12.245Z,19.07
2018-01-07T23:40:40.617Z,16.70
2018-01-07T23:43:09.478Z,16.27
2018-01-07T23:45:38.568Z,18.27
2018-01-07T23:48:07.686Z,15.90
2018-01-07T23:50:36.734Z,16.30
2018-01-07T23:53:05.767Z,16.47
2018-01-07T23:55:34.082Z,18.27
2018-01-07T23:58:02.403Z,16.90
